sensor_id;sensor_type;location;lat;lon;timestamp;pressure;altitude;pressure_sealevel;temperature
74750;BMP280;63269;53.330;-6.288;2023-04-07T00:00:17;101878.59;;;19.29
74750;BMP280;63269;53.330;-6.288;2023-04-07T00:02:42;101878.59;;;19.29
74750;BMP280;63269;53.330;-6.288;2023-04-07T00:05:08;101871.75;;;19.28
74750;BMP280;63269;53.330;-6.288;2023-04-07T00:07:33;101882.38;;;19.28
74750;BMP280;63269;53.330;-6.288;2023-04-07T00:09:59;101878.19;;;19.27
74750;BMP280;63269;53.330;-6.288;2023-04-07T00:12:24;101878.19;;;19.27
74750;BMP280;63269;53.330;-6.288;2023-04-07T00:14:50;101876.66;;;19.26
74750;BMP280;63269;53.330;-6.288;2023-04-07T00:17:15;101892.63;;;19.26
74750;BMP280;63269;53.330;-6.288;2023-04-07T00:19:40;101888.09;;;19.26
74750;BMP280;63269;53.330;-6.288;2023-04-07T00:22:06;101891.88;;;19.25
74750;BMP280;63269;53.330;-6.288;2023-04-07T00:24:31;101881.25;;;19.25
74750;BMP280;63269;53.330;-6.288;2023-04-07T00:26:57;101877.84;;;19.25
74750;BMP280;63269;53.330;-6.288;2023-04-07T00:29:22;101877.84;;;19.25
74750;BMP280;63269;53.330;-6.288;2023-04-07T00:31:47;101869.09;;;19.24
74750;BMP280;63269;53.330;-6.288;2023-04-07T00:34:13;101878.25;;;19.23
74750;BMP280;63269;53.330;-6.288;2023-04-07T00:36:38;101871.00;;;19.24
74750;BMP280;63269;53.330;-6.288;2023-04-07T00:39:04;101871.00;;;19.24
74750;BMP280;63269;53.330;-6.288;2023-04-07T00:41:29;101871.41;;;19.22
74750;BMP280;63269;53.330;-6.288;2023-04-07T00:43:55;101869.88;;;19.21
74750;BMP280;63269;53.330;-6.288;2023-04-07T00:46:21;101877.84;;;19.21
74750;BMP280;63269;53.330;-6.288;2023-04-07T00:48:48;101877.84;;;19.21
74750;BMP280;63269;53.330;-6.288;2023-04-07T00:51:14;101869.53;;;19.19
74750;BMP280;63269;53.330;-6.288;2023-04-07T00:53:40;101875.19;;;19.21
74750;BMP280;63269;53.330;-6.288;2023-04-07T00:56:06;101875.19;;;19.21
74750;BMP280;63269;53.330;-6.288;2023-04-07T00:58:31;101869.13;;;19.21
74750;BMP280;63269;53.330;-6.288;2023-04-07T01:03:35;101871.78;;;19.21
74750;BMP280;63269;53.330;-6.288;2023-04-07T01:06:05;101868.00;;;19.18
74750;BMP280;63269;53.330;-6.288;2023-04-07T01:11:23;101868.00;;;19.18
74750;BMP280;63269;53.330;-6.288;2023-04-07T01:13:51;101868.00;;;19.18
74750;BMP280;63269;53.330;-6.288;2023-04-07T01:16:26;101865.75;;;19.16
74750;BMP280;63269;53.330;-6.288;2023-04-07T01:19:15;101865.75;;;19.16
74750;BMP280;63269;53.330;-6.288;2023-04-07T01:21:43;101868.41;;;19.16
74750;BMP280;63269;53.330;-6.288;2023-04-07T01:27:18;101863.50;;;19.15
74750;BMP280;63269;53.330;-6.288;2023-04-07T01:29:46;101863.50;;;19.15
74750;BMP280;63269;53.330;-6.288;2023-04-07T01:32:13;101873.00;;;19.12
74750;BMP280;63269;53.330;-6.288;2023-04-07T01:34:40;101867.66;;;19.12
74750;BMP280;63269;53.330;-6.288;2023-04-07T01:37:06;101863.09;;;19.13
74750;BMP280;63269;53.330;-6.288;2023-04-07T01:39:32;101863.09;;;19.13
74750;BMP280;63269;53.330;-6.288;2023-04-07T01:41:58;101858.16;;;19.11
74750;BMP280;63269;53.330;-6.288;2023-04-07T01:44:27;101867.34;;;19.10
74750;BMP280;63269;53.330;-6.288;2023-04-07T01:46:53;101866.91;;;19.12
74750;BMP280;63269;53.330;-6.288;2023-04-07T01:49:20;101870.31;;;19.12
74750;BMP280;63269;53.330;-6.288;2023-04-07T01:51:46;101866.91;;;19.12
74750;BMP280;63269;53.330;-6.288;2023-04-07T01:54:15;101865.41;;;19.11
74750;BMP280;63269;53.330;-6.288;2023-04-07T01:56:42;101865.41;;;19.11
74750;BMP280;63269;53.330;-6.288;2023-04-07T01:59:07;101868.47;;;19.09
74750;BMP280;63269;53.330;-6.288;2023-04-07T02:01:33;101859.72;;;19.09
74750;BMP280;63269;53.330;-6.288;2023-04-07T02:06:53;101865.03;;;19.09
74750;BMP280;63269;53.330;-6.288;2023-04-07T02:09:20;101858.97;;;19.08
74750;BMP280;63269;53.330;-6.288;2023-04-07T02:11:47;101858.97;;;19.08
74750;BMP280;63269;53.330;-6.288;2023-04-07T02:14:13;101858.59;;;19.06
74750;BMP280;63269;53.330;-6.288;2023-04-07T02:16:42;101863.91;;;19.06
74750;BMP280;63269;53.330;-6.288;2023-04-07T02:19:07;101864.66;;;19.07
74750;BMP280;63269;53.330;-6.288;2023-04-07T02:21:34;101869.22;;;19.06
74750;BMP280;63269;53.330;-6.288;2023-04-07T02:24:10;101859.75;;;19.05
74750;BMP280;63269;53.330;-6.288;2023-04-07T02:26:36;101859.75;;;19.05
74750;BMP280;63269;53.330;-6.288;2023-04-07T02:29:05;101863.16;;;19.06
74750;BMP280;63269;53.330;-6.288;2023-04-07T02:31:30;101855.56;;;19.04
74750;BMP280;63269;53.330;-6.288;2023-04-07T02:33:56;101864.31;;;19.05
74750;BMP280;63269;53.330;-6.288;2023-04-07T02:36:21;101864.31;;;19.05
74750;BMP280;63269;53.330;-6.288;2023-04-07T02:38:47;101870.00;;;19.03
74750;BMP280;63269;53.330;-6.288;2023-04-07T02:41:13;101854.81;;;19.04
74750;BMP280;63269;53.330;-6.288;2023-04-07T02:43:38;101861.28;;;19.03
74750;BMP280;63269;53.330;-6.288;2023-04-07T02:46:04;101853.72;;;19.01
74750;BMP280;63269;53.330;-6.288;2023-04-07T02:48:30;101854.44;;;19.02
74750;BMP280;63269;53.330;-6.288;2023-04-07T02:50:55;101854.44;;;19.02
74750;BMP280;63269;53.330;-6.288;2023-04-07T02:53:20;101855.63;;;19.01
74750;BMP280;63269;53.330;-6.288;2023-04-07T02:55:46;101855.63;;;19.01
74750;BMP280;63269;53.330;-6.288;2023-04-07T02:58:11;101853.34;;;18.99
74750;BMP280;63269;53.330;-6.288;2023-04-07T03:00:37;101853.34;;;18.99
74750;BMP280;63269;53.330;-6.288;2023-04-07T03:03:02;101859.00;;;18.97
74750;BMP280;63269;53.330;-6.288;2023-04-07T03:05:27;101851.81;;;18.98
74750;BMP280;63269;53.330;-6.288;2023-04-07T03:07:53;101856.03;;;18.95
74750;BMP280;63269;53.330;-6.288;2023-04-07T03:10:18;101850.69;;;18.95
74750;BMP280;63269;53.330;-6.288;2023-04-07T03:12:44;101854.09;;;18.96
74750;BMP280;63269;53.330;-6.288;2023-04-07T03:15:09;101854.50;;;18.94
74750;BMP280;63269;53.330;-6.288;2023-04-07T03:17:34;101849.19;;;18.94
74750;BMP280;63269;53.330;-6.288;2023-04-07T03:20:00;101845.03;;;18.93
74750;BMP280;63269;53.330;-6.288;2023-04-07T03:22:26;101851.09;;;18.94
74750;BMP280;63269;53.330;-6.288;2023-04-07T03:24:51;101848.81;;;18.92
74750;BMP280;63269;53.330;-6.288;2023-04-07T03:27:16;101848.09;;;18.92
74750;BMP280;63269;53.330;-6.288;2023-04-07T03:29:42;101847.31;;;18.91
74750;BMP280;63269;53.330;-6.288;2023-04-07T03:32:08;101850.75;;;18.92
74750;BMP280;63269;53.330;-6.288;2023-04-07T03:34:33;101850.75;;;18.92
74750;BMP280;63269;53.330;-6.288;2023-04-07T03:36:58;101845.78;;;18.90
74750;BMP280;63269;53.330;-6.288;2023-04-07T03:39:24;101850.34;;;18.90
74750;BMP280;63269;53.330;-6.288;2023-04-07T03:41:50;101851.47;;;18.89
74750;BMP280;63269;53.330;-6.288;2023-04-07T03:44:16;101851.47;;;18.89
74750;BMP280;63269;53.330;-6.288;2023-04-07T03:46:41;101850.00;;;18.88
74750;BMP280;63269;53.330;-6.288;2023-04-07T03:49:07;101850.75;;;18.88
74750;BMP280;63269;53.330;-6.288;2023-04-07T03:51:32;101846.97;;;18.86
74750;BMP280;63269;53.330;-6.288;2023-04-07T03:53:58;101846.97;;;18.86
74750;BMP280;63269;53.330;-6.288;2023-04-07T03:56:24;101846.22;;;18.85
74750;BMP280;63269;53.330;-6.288;2023-04-07T03:58:49;101851.53;;;18.85
74750;BMP280;63269;53.330;-6.288;2023-04-07T04:01:15;101851.91;;;18.84
74750;BMP280;63269;53.330;-6.288;2023-04-07T04:03:41;101848.09;;;18.85
74750;BMP280;63269;53.330;-6.288;2023-04-07T04:06:06;101848.47;;;18.83
74750;BMP280;63269;53.330;-6.288;2023-04-07T04:08:32;101839.75;;;18.83
74750;BMP280;63269;53.330;-6.288;2023-04-07T04:10:57;101839.75;;;18.83
74750;BMP280;63269;53.330;-6.288;2023-04-07T04:13:23;101839.75;;;18.83
74750;BMP280;63269;53.330;-6.288;2023-04-07T04:15:48;101839.41;;;18.81
74750;BMP280;63269;53.330;-6.288;2023-04-07T04:18:13;101839.41;;;18.81
74750;BMP280;63269;53.330;-6.288;2023-04-07T04:20:39;101835.22;;;18.80
74750;BMP280;63269;53.330;-6.288;2023-04-07T04:23:04;101839.03;;;18.79
74750;BMP280;63269;53.330;-6.288;2023-04-07T04:25:30;101845.09;;;18.79
74750;BMP280;63269;53.330;-6.288;2023-04-07T04:27:55;101845.09;;;18.79
74750;BMP280;63269;53.330;-6.288;2023-04-07T04:30:21;101837.91;;;18.76
74750;BMP280;63269;53.330;-6.288;2023-04-07T04:32:46;101840.94;;;18.78
74750;BMP280;63269;53.330;-6.288;2023-04-07T04:35:12;101840.19;;;18.77
74750;BMP280;63269;53.330;-6.288;2023-04-07T04:37:37;101844.38;;;18.75
74750;BMP280;63269;53.330;-6.288;2023-04-07T04:40:03;101836.41;;;18.75
74750;BMP280;63269;53.330;-6.288;2023-04-07T04:42:32;101832.22;;;18.74
74750;BMP280;63269;53.330;-6.288;2023-04-07T04:44:58;101844.38;;;18.75
74750;BMP280;63269;53.330;-6.288;2023-04-07T04:47:23;101844.38;;;18.75
74750;BMP280;63269;53.330;-6.288;2023-04-07T04:49:48;101834.09;;;18.73
74750;BMP280;63269;53.330;-6.288;2023-04-07T04:52:14;101841.34;;;18.73
74750;BMP280;63269;53.330;-6.288;2023-04-07T04:54:39;101836.03;;;18.73
74750;BMP280;63269;53.330;-6.288;2023-04-07T04:57:05;101836.03;;;18.73
74750;BMP280;63269;53.330;-6.288;2023-04-07T04:59:30;101839.84;;;18.72
74750;BMP280;63269;53.330;-6.288;2023-04-07T05:01:55;101839.84;;;18.72
74750;BMP280;63269;53.330;-6.288;2023-04-07T05:04:21;101837.56;;;18.70
74750;BMP280;63269;53.330;-6.288;2023-04-07T05:06:46;101836.81;;;18.70
74750;BMP280;63269;53.330;-6.288;2023-04-07T05:09:11;101844.78;;;18.70
74750;BMP280;63269;53.330;-6.288;2023-04-07T05:11:37;101841.38;;;18.69
74750;BMP280;63269;53.330;-6.288;2023-04-07T05:14:02;101839.47;;;18.70
74750;BMP280;63269;53.330;-6.288;2023-04-07T05:16:28;101838.34;;;18.67
74750;BMP280;63269;53.330;-6.288;2023-04-07T05:18:53;101838.34;;;18.67
74750;BMP280;63269;53.330;-6.288;2023-04-07T05:21:18;101848.97;;;18.67
74750;BMP280;63269;53.330;-6.288;2023-04-07T05:23:46;101848.97;;;18.67
74750;BMP280;63269;53.330;-6.288;2023-04-07T05:26:11;101842.13;;;18.66
74750;BMP280;63269;53.330;-6.288;2023-04-07T05:28:36;101848.63;;;18.65
74750;BMP280;63269;53.330;-6.288;2023-04-07T05:31:02;101848.63;;;18.65
74750;BMP280;63269;53.330;-6.288;2023-04-07T05:33:27;101847.84;;;18.65
74750;BMP280;63269;53.330;-6.288;2023-04-07T05:35:53;101847.84;;;18.65
74750;BMP280;63269;53.330;-6.288;2023-04-07T05:38:18;101849.03;;;18.64
74750;BMP280;63269;53.330;-6.288;2023-04-07T05:40:43;101857.00;;;18.64
74750;BMP280;63269;53.330;-6.288;2023-04-07T05:43:09;101857.00;;;18.64
74750;BMP280;63269;53.330;-6.288;2023-04-07T05:45:35;101861.53;;;18.63
74750;BMP280;63269;53.330;-6.288;2023-04-07T05:48:00;101861.53;;;18.63
74750;BMP280;63269;53.330;-6.288;2023-04-07T05:50:26;101863.81;;;18.61
74750;BMP280;63269;53.330;-6.288;2023-04-07T05:52:51;101862.66;;;18.62
74750;BMP280;63269;53.330;-6.288;2023-04-07T05:55:16;101859.25;;;18.62
74750;BMP280;63269;53.330;-6.288;2023-04-07T05:57:42;101864.56;;;18.62
74750;BMP280;63269;53.330;-6.288;2023-04-07T06:00:08;101864.56;;;18.62
74750;BMP280;63269;53.330;-6.288;2023-04-07T06:02:33;101863.81;;;18.61
74750;BMP280;63269;53.330;-6.288;2023-04-07T06:04:59;101863.81;;;18.61
74750;BMP280;63269;53.330;-6.288;2023-04-07T06:07:25;101867.59;;;18.60
74750;BMP280;63269;53.330;-6.288;2023-04-07T06:09:50;101872.19;;;18.60
74750;BMP280;63269;53.330;-6.288;2023-04-07T06:12:15;101868.03;;;18.59
74750;BMP280;63269;53.330;-6.288;2023-04-07T06:14:41;101868.03;;;18.59
74750;BMP280;63269;53.330;-6.288;2023-04-07T06:17:06;101868.03;;;18.59
74750;BMP280;63269;53.330;-6.288;2023-04-07T06:19:32;101865.00;;;18.56
74750;BMP280;63269;53.330;-6.288;2023-04-07T06:21:57;101867.66;;;18.56
74750;BMP280;63269;53.330;-6.288;2023-04-07T06:24:23;101864.22;;;18.56
74750;BMP280;63269;53.330;-6.288;2023-04-07T06:26:50;101876.38;;;18.57
74750;BMP280;63269;53.330;-6.288;2023-04-07T06:29:16;101877.50;;;18.56
74750;BMP280;63269;53.330;-6.288;2023-04-07T06:31:41;101872.19;;;18.56
74750;BMP280;63269;53.330;-6.288;2023-04-07T06:34:07;101872.19;;;18.56
74750;BMP280;63269;53.330;-6.288;2023-04-07T06:36:32;101875.22;;;18.54
74750;BMP280;63269;53.330;-6.288;2023-04-07T06:38:59;101874.88;;;18.52
74750;BMP280;63269;53.330;-6.288;2023-04-07T06:41:24;101865.75;;;18.53
74750;BMP280;63269;53.330;-6.288;2023-04-07T06:43:50;101880.94;;;18.53
74750;BMP280;63269;53.330;-6.288;2023-04-07T06:46:18;101879.03;;;18.53
74750;BMP280;63269;53.330;-6.288;2023-04-07T06:48:44;101881.69;;;18.53
74750;BMP280;63269;53.330;-6.288;2023-04-07T06:51:09;101881.69;;;18.53
74750;BMP280;63269;53.330;-6.288;2023-04-07T06:53:35;101881.69;;;18.53
74750;BMP280;63269;53.330;-6.288;2023-04-07T06:56:09;101878.28;;;18.53
74750;BMP280;63269;53.330;-6.288;2023-04-07T06:58:35;101874.91;;;18.49
74750;BMP280;63269;53.330;-6.288;2023-04-07T07:01:01;101874.91;;;18.49
74750;BMP280;63269;53.330;-6.288;2023-04-07T07:03:27;101877.91;;;18.51
74750;BMP280;63269;53.330;-6.288;2023-04-07T07:06:00;101875.25;;;18.51
74750;BMP280;63269;53.330;-6.288;2023-04-07T07:08:26;101875.25;;;18.51
74750;BMP280;63269;53.330;-6.288;2023-04-07T07:10:52;101881.72;;;18.50
74750;BMP280;63269;53.330;-6.288;2023-04-07T07:13:20;101881.72;;;18.50
74750;BMP280;63269;53.330;-6.288;2023-04-07T07:15:47;101880.22;;;18.49
74750;BMP280;63269;53.330;-6.288;2023-04-07T07:18:13;101888.94;;;18.49
74750;BMP280;63269;53.330;-6.288;2023-04-07T07:20:38;101888.94;;;18.49
74750;BMP280;63269;53.330;-6.288;2023-04-07T07:23:03;101885.91;;;18.47
74750;BMP280;63269;53.330;-6.288;2023-04-07T07:25:29;101890.09;;;18.48
74750;BMP280;63269;53.330;-6.288;2023-04-07T07:27:54;101888.56;;;18.47
74750;BMP280;63269;53.330;-6.288;2023-04-07T07:30:21;101888.56;;;18.47
74750;BMP280;63269;53.330;-6.288;2023-04-07T07:32:46;101884.38;;;18.46
74750;BMP280;63269;53.330;-6.288;2023-04-07T07:35:12;101882.50;;;18.47
74750;BMP280;63269;53.330;-6.288;2023-04-07T07:37:37;101880.59;;;18.47
74750;BMP280;63269;53.330;-6.288;2023-04-07T07:40:03;101887.81;;;18.47
74750;BMP280;63269;53.330;-6.288;2023-04-07T07:42:29;101895.78;;;18.47
74750;BMP280;63269;53.330;-6.288;2023-04-07T07:44:55;101888.94;;;18.46
74750;BMP280;63269;53.330;-6.288;2023-04-07T07:47:20;101888.94;;;18.46
74750;BMP280;63269;53.330;-6.288;2023-04-07T07:49:46;101883.63;;;18.46
74750;BMP280;63269;53.330;-6.288;2023-04-07T07:52:11;101881.72;;;18.46
74750;BMP280;63269;53.330;-6.288;2023-04-07T07:54:37;101879.44;;;18.45
74750;BMP280;63269;53.330;-6.288;2023-04-07T07:57:02;101885.16;;;18.43
74750;BMP280;63269;53.330;-6.288;2023-04-07T07:59:29;101885.16;;;18.43
74750;BMP280;63269;53.330;-6.288;2023-04-07T08:01:54;101880.59;;;18.44
74750;BMP280;63269;53.330;-6.288;2023-04-07T08:04:20;101876.78;;;18.45
74750;BMP280;63269;53.330;-6.288;2023-04-07T08:06:47;101876.78;;;18.45
74750;BMP280;63269;53.330;-6.288;2023-04-07T08:09:13;101880.22;;;18.45
74750;BMP280;63269;53.330;-6.288;2023-04-07T08:11:39;101874.13;;;18.45
74750;BMP280;63269;53.330;-6.288;2023-04-07T08:14:05;101874.13;;;18.45
74750;BMP280;63269;53.330;-6.288;2023-04-07T08:16:31;101876.78;;;18.45
74750;BMP280;63269;53.330;-6.288;2023-04-07T08:18:56;101876.78;;;18.45
74750;BMP280;63269;53.330;-6.288;2023-04-07T08:21:22;101874.13;;;18.45
74750;BMP280;63269;53.330;-6.288;2023-04-07T08:23:47;101866.56;;;18.43
74750;BMP280;63269;53.330;-6.288;2023-04-07T08:26:12;101866.56;;;18.43
74750;BMP280;63269;53.330;-6.288;2023-04-07T08:28:38;101871.88;;;18.43
74750;BMP280;63269;53.330;-6.288;2023-04-07T08:31:03;101873.00;;;18.46
74750;BMP280;63269;53.330;-6.288;2023-04-07T08:33:29;101873.00;;;18.46
74750;BMP280;63269;53.330;-6.288;2023-04-07T08:35:55;101869.59;;;18.45
74750;BMP280;63269;53.330;-6.288;2023-04-07T08:38:21;101869.59;;;18.45
74750;BMP280;63269;53.330;-6.288;2023-04-07T08:40:52;101868.47;;;18.43
74750;BMP280;63269;53.330;-6.288;2023-04-07T08:43:19;101879.44;;;18.45
74750;BMP280;63269;53.330;-6.288;2023-04-07T08:45:45;101866.94;;;18.45
74750;BMP280;63269;53.330;-6.288;2023-04-07T08:48:17;101866.94;;;18.45
74750;BMP280;63269;53.330;-6.288;2023-04-07T08:50:48;101868.81;;;18.45
74750;BMP280;63269;53.330;-6.288;2023-04-07T08:53:18;101871.47;;;18.45
74750;BMP280;63269;53.330;-6.288;2023-04-07T08:55:45;101866.16;;;18.45
74750;BMP280;63269;53.330;-6.288;2023-04-07T08:58:12;101866.16;;;18.45
74750;BMP280;63269;53.330;-6.288;2023-04-07T09:00:39;101863.91;;;18.43
74750;BMP280;63269;53.330;-6.288;2023-04-07T09:03:07;101863.50;;;18.45
74750;BMP280;63269;53.330;-6.288;2023-04-07T09:05:33;101862.78;;;18.44
74750;BMP280;63269;53.330;-6.288;2023-04-07T09:07:59;101858.59;;;18.47
74750;BMP280;63269;53.330;-6.288;2023-04-07T09:10:25;101860.09;;;18.48
74750;BMP280;63269;53.330;-6.288;2023-04-07T09:12:50;101860.09;;;18.48
74750;BMP280;63269;53.330;-6.288;2023-04-07T09:15:16;101873.38;;;18.48
74750;BMP280;63269;53.330;-6.288;2023-04-07T09:17:41;101873.38;;;18.48
74750;BMP280;63269;53.330;-6.288;2023-04-07T09:20:07;101874.91;;;18.49
74750;BMP280;63269;53.330;-6.288;2023-04-07T09:25:12;101874.50;;;18.50
74750;BMP280;63269;53.330;-6.288;2023-04-07T09:27:38;101874.50;;;18.50
74750;BMP280;63269;53.330;-6.288;2023-04-07T09:30:13;101869.19;;;18.50
74750;BMP280;63269;53.330;-6.288;2023-04-07T09:32:40;101869.19;;;18.50
74750;BMP280;63269;53.330;-6.288;2023-04-07T09:35:06;101869.19;;;18.50
74750;BMP280;63269;53.330;-6.288;2023-04-07T09:37:32;101869.19;;;18.50
74750;BMP280;63269;53.330;-6.288;2023-04-07T09:39:57;101875.25;;;18.51
74750;BMP280;63269;53.330;-6.288;2023-04-07T09:42:23;101871.44;;;18.52
74750;BMP280;63269;53.330;-6.288;2023-04-07T09:44:49;101871.44;;;18.52
74750;BMP280;63269;53.330;-6.288;2023-04-07T09:47:15;101864.25;;;18.52
74750;BMP280;63269;53.330;-6.288;2023-04-07T09:49:51;101869.19;;;18.54
74750;BMP280;63269;53.330;-6.288;2023-04-07T09:52:18;101867.66;;;18.53
74750;BMP280;63269;53.330;-6.288;2023-04-07T09:54:45;101867.66;;;18.53
74750;BMP280;63269;53.330;-6.288;2023-04-07T09:57:11;101872.97;;;18.53
74750;BMP280;63269;53.330;-6.288;2023-04-07T09:59:39;101869.19;;;18.54
74750;BMP280;63269;53.330;-6.288;2023-04-07T10:02:07;101869.19;;;18.54
74750;BMP280;63269;53.330;-6.288;2023-04-07T10:04:33;101871.84;;;18.54
74750;BMP280;63269;53.330;-6.288;2023-04-07T10:06:59;101865.38;;;18.51
74750;BMP280;63269;53.330;-6.288;2023-04-07T10:09:28;101863.47;;;18.55
74750;BMP280;63269;53.330;-6.288;2023-04-07T10:11:56;101868.00;;;18.55
74750;BMP280;63269;53.330;-6.288;2023-04-07T10:14:27;101868.00;;;18.55
74750;BMP280;63269;53.330;-6.288;2023-04-07T10:16:53;101869.53;;;18.56
74750;BMP280;63269;53.330;-6.288;2023-04-07T10:19:19;101869.53;;;18.56
74750;BMP280;63269;53.330;-6.288;2023-04-07T10:21:50;101867.25;;;18.54
74750;BMP280;63269;53.330;-6.288;2023-04-07T10:27:06;101866.88;;;18.56
74750;BMP280;63269;53.330;-6.288;2023-04-07T10:29:40;101863.09;;;18.57
74750;BMP280;63269;53.330;-6.288;2023-04-07T10:32:06;101863.09;;;18.57
74750;BMP280;63269;53.330;-6.288;2023-04-07T10:37:20;101860.44;;;18.57
74750;BMP280;63269;53.330;-6.288;2023-04-07T10:45:08;101866.50;;;18.58
74750;BMP280;63269;53.330;-6.288;2023-04-07T10:48:18;101868.41;;;18.53
74750;BMP280;63269;53.330;-6.288;2023-04-07T10:50:19;101868.41;;;18.53
74750;BMP280;63269;53.330;-6.288;2023-04-07T10:52:46;101851.72;;;18.56
74750;BMP280;63269;53.330;-6.288;2023-04-07T10:55:52;101856.25;;;18.56
74750;BMP280;63269;53.330;-6.288;2023-04-07T11:03:27;101852.47;;;18.57
74750;BMP280;63269;53.330;-6.288;2023-04-07T11:06:06;101837.66;;;18.56
74750;BMP280;63269;53.330;-6.288;2023-04-07T11:08:40;101834.97;;;18.56
74750;BMP280;63269;53.330;-6.288;2023-04-07T11:11:08;101847.16;;;18.57
74750;BMP280;63269;53.330;-6.288;2023-04-07T11:16:06;101846.41;;;18.56
74750;BMP280;63269;53.330;-6.288;2023-04-07T11:18:33;101841.44;;;18.59
74750;BMP280;63269;53.330;-6.288;2023-04-07T11:20:59;101847.47;;;18.59
74750;BMP280;63269;53.330;-6.288;2023-04-07T11:23:24;101847.47;;;18.59
74750;BMP280;63269;53.330;-6.288;2023-04-07T11:25:58;101839.13;;;18.61
74750;BMP280;63269;53.330;-6.288;2023-04-07T11:28:26;101839.13;;;18.61
74750;BMP280;63269;53.330;-6.288;2023-04-07T11:30:52;101839.91;;;18.61
74750;BMP280;63269;53.330;-6.288;2023-04-07T11:33:25;101839.91;;;18.61
74750;BMP280;63269;53.330;-6.288;2023-04-07T11:35:59;101850.53;;;18.61
74750;BMP280;63269;53.330;-6.288;2023-04-07T11:38:28;101848.63;;;18.62
74750;BMP280;63269;53.330;-6.288;2023-04-07T11:40:55;101848.63;;;18.62
74750;BMP280;63269;53.330;-6.288;2023-04-07T11:43:24;101843.69;;;18.60
74750;BMP280;63269;53.330;-6.288;2023-04-07T11:46:07;101842.19;;;18.63
74750;BMP280;63269;53.330;-6.288;2023-04-07T11:48:34;101841.41;;;18.62
74750;BMP280;63269;53.330;-6.288;2023-04-07T11:51:01;101842.94;;;18.63
74750;BMP280;63269;53.330;-6.288;2023-04-07T11:53:32;101841.78;;;18.64
74750;BMP280;63269;53.330;-6.288;2023-04-07T11:56:09;101841.78;;;18.64
74750;BMP280;63269;53.330;-6.288;2023-04-07T11:58:36;101838.41;;;18.64
74750;BMP280;63269;53.330;-6.288;2023-04-07T12:01:04;101838.41;;;18.64
74750;BMP280;63269;53.330;-6.288;2023-04-07T12:03:33;101838.41;;;18.64
74750;BMP280;63269;53.330;-6.288;2023-04-07T12:06:00;101838.41;;;18.64
74750;BMP280;63269;53.330;-6.288;2023-04-07T12:08:36;101835.72;;;18.64
74750;BMP280;63269;53.330;-6.288;2023-04-07T12:11:03;101840.25;;;18.67
74750;BMP280;63269;53.330;-6.288;2023-04-07T12:13:29;101840.25;;;18.67
74750;BMP280;63269;53.330;-6.288;2023-04-07T12:15:57;101837.97;;;18.65
74750;BMP280;63269;53.330;-6.288;2023-04-07T12:18:22;101839.88;;;18.65
74750;BMP280;63269;53.330;-6.288;2023-04-07T12:20:49;101848.22;;;18.67
74750;BMP280;63269;53.330;-6.288;2023-04-07T12:23:14;101842.91;;;18.67
74750;BMP280;63269;53.330;-6.288;2023-04-07T12:25:40;101844.41;;;18.68
74750;BMP280;63269;53.330;-6.288;2023-04-07T12:28:06;101837.22;;;18.68
74750;BMP280;63269;53.330;-6.288;2023-04-07T12:30:31;101837.22;;;18.68
74750;BMP280;63269;53.330;-6.288;2023-04-07T12:32:57;101835.69;;;18.67
74750;BMP280;63269;53.330;-6.288;2023-04-07T12:35:22;101834.16;;;18.66
74750;BMP280;63269;53.330;-6.288;2023-04-07T12:37:48;101835.28;;;18.69
74750;BMP280;63269;53.330;-6.288;2023-04-07T12:40:13;101829.25;;;18.68
74750;BMP280;63269;53.330;-6.288;2023-04-07T12:42:40;101831.91;;;18.68
74750;BMP280;63269;53.330;-6.288;2023-04-07T12:45:06;101833.41;;;18.69
74750;BMP280;63269;53.330;-6.288;2023-04-07T12:47:32;101833.41;;;18.69
74750;BMP280;63269;53.330;-6.288;2023-04-07T12:49:58;101842.53;;;18.68
74750;BMP280;63269;53.330;-6.288;2023-04-07T12:52:23;101836.44;;;18.71
74750;BMP280;63269;53.330;-6.288;2023-04-07T12:54:49;101833.03;;;18.71
74750;BMP280;63269;53.330;-6.288;2023-04-07T12:57:14;101833.03;;;18.71
74750;BMP280;63269;53.330;-6.288;2023-04-07T12:59:40;101837.19;;;18.72
74750;BMP280;63269;53.330;-6.288;2023-04-07T13:02:06;101837.19;;;18.72
74750;BMP280;63269;53.330;-6.288;2023-04-07T13:04:32;101837.94;;;18.72
74750;BMP280;63269;53.330;-6.288;2023-04-07T13:06:59;101837.94;;;18.72
74750;BMP280;63269;53.330;-6.288;2023-04-07T13:09:27;101839.84;;;18.72
74750;BMP280;63269;53.330;-6.288;2023-04-07T13:11:52;101832.63;;;18.72
74750;BMP280;63269;53.330;-6.288;2023-04-07T13:14:17;101832.63;;;18.72
74750;BMP280;63269;53.330;-6.288;2023-04-07T13:16:43;101831.84;;;18.72
74750;BMP280;63269;53.330;-6.288;2023-04-07T13:19:08;101834.09;;;18.73
74750;BMP280;63269;53.330;-6.288;2023-04-07T13:21:34;101828.78;;;18.73
74750;BMP280;63269;53.330;-6.288;2023-04-07T13:23:59;101828.78;;;18.73
74750;BMP280;63269;53.330;-6.288;2023-04-07T13:26:25;101828.78;;;18.73
74750;BMP280;63269;53.330;-6.288;2023-04-07T13:28:52;101827.31;;;18.72
74750;BMP280;63269;53.330;-6.288;2023-04-07T13:31:18;101836.75;;;18.73
74750;BMP280;63269;53.330;-6.288;2023-04-07T13:33:46;101832.22;;;18.74
74750;BMP280;63269;53.330;-6.288;2023-04-07T13:36:11;101817.44;;;18.73
74750;BMP280;63269;53.330;-6.288;2023-04-07T13:38:36;101826.91;;;18.74
74750;BMP280;63269;53.330;-6.288;2023-04-07T13:41:02;101826.91;;;18.74
74750;BMP280;63269;53.330;-6.288;2023-04-07T13:43:28;101828.78;;;18.73
74750;BMP280;63269;53.330;-6.288;2023-04-07T13:45:53;101818.16;;;18.73
74750;BMP280;63269;53.330;-6.288;2023-04-07T13:48:20;101822.72;;;18.76
74750;BMP280;63269;53.330;-6.288;2023-04-07T13:50:46;101822.72;;;18.76
74750;BMP280;63269;53.330;-6.288;2023-04-07T13:53:11;101812.50;;;18.75
74750;BMP280;63269;53.330;-6.288;2023-04-07T13:55:37;101812.50;;;18.75
74750;BMP280;63269;53.330;-6.288;2023-04-07T13:58:03;101814.38;;;18.74
74750;BMP280;63269;53.330;-6.288;2023-04-07T14:00:28;101814.38;;;18.74
74750;BMP280;63269;53.330;-6.288;2023-04-07T14:02:54;101817.41;;;18.76
74750;BMP280;63269;53.330;-6.288;2023-04-07T14:05:23;101817.41;;;18.76
74750;BMP280;63269;53.330;-6.288;2023-04-07T14:07:48;101809.06;;;18.74
74750;BMP280;63269;53.330;-6.288;2023-04-07T14:10:15;101811.31;;;18.76
74750;BMP280;63269;53.330;-6.288;2023-04-07T14:12:40;101810.19;;;18.77